sensor_id;sensor_type;location;lat;lon;timestamp;P1;durP1;ratioP1;P2;durP2;ratioP2
23988;SDS011;12202;52.136;5.592;2022-10-16T00:00:58;20.23;;;4.35;;
23988;SDS011;12202;52.136;5.592;2022-10-16T00:03:29;13.00;;;4.68;;
23988;SDS011;12202;52.136;5.592;2022-10-16T00:05:58;9.32;;;4.70;;
23988;SDS011;12202;52.136;5.592;2022-10-16T00:08:24;13.77;;;5.10;;
23988;SDS011;12202;52.136;5.592;2022-10-16T00:10:50;17.23;;;5.43;;
23988;SDS011;12202;52.136;5.592;2022-10-16T00:13:16;10.30;;;4.68;;
23988;SDS011;12202;52.136;5.592;2022-10-16T00:15:43;12.32;;;4.90;;
23988;SDS011;12202;52.136;5.592;2022-10-16T00:18:09;12.68;;;6.25;;
23988;SDS011;12202;52.136;5.592;2022-10-16T00:20:35;12.90;;;5.43;;
23988;SDS011;12202;52.136;5.592;2022-10-16T00:23:02;11.48;;;5.32;;
23988;SDS011;12202;52.136;5.592;2022-10-16T00:25:28;7.95;;;5.05;;
23988;SDS011;12202;52.136;5.592;2022-10-16T00:27:54;17.10;;;5.82;;
23988;SDS011;12202;52.136;5.592;2022-10-16T00:30:20;12.63;;;5.40;;
23988;SDS011;12202;52.136;5.592;2022-10-16T00:32:46;15.95;;;5.40;;
23988;SDS011;12202;52.136;5.592;2022-10-16T00:35:12;15.55;;;5.40;;
23988;SDS011;12202;52.136;5.592;2022-10-16T00:37:38;12.32;;;6.05;;
23988;SDS011;12202;52.136;5.592;2022-10-16T00:40:04;17.83;;;5.80;;
23988;SDS011;12202;52.136;5.592;2022-10-16T00:42:30;7.93;;;4.85;;
23988;SDS011;12202;52.136;5.592;2022-10-16T00:44:56;10.13;;;4.78;;
23988;SDS011;12202;52.136;5.592;2022-10-16T00:49:49;13.43;;;4.93;;
23988;SDS011;12202;52.136;5.592;2022-10-16T00:52:15;16.10;;;4.95;;
23988;SDS011;12202;52.136;5.592;2022-10-16T00:54:42;11.45;;;4.93;;
23988;SDS011;12202;52.136;5.592;2022-10-16T00:57:08;10.40;;;4.72;;
23988;SDS011;12202;52.136;5.592;2022-10-16T00:59:36;12.27;;;5.25;;
23988;SDS011;12202;52.136;5.592;2022-10-16T01:02:02;14.48;;;6.05;;
23988;SDS011;12202;52.136;5.592;2022-10-16T01:04:31;11.10;;;4.57;;
23988;SDS011;12202;52.136;5.592;2022-10-16T01:09:38;11.98;;;4.60;;
23988;SDS011;12202;52.136;5.592;2022-10-16T01:14:45;11.32;;;4.63;;
23988;SDS011;12202;52.136;5.592;2022-10-16T01:17:17;7.97;;;4.40;;
23988;SDS011;12202;52.136;5.592;2022-10-16T01:19:57;9.65;;;5.00;;
23988;SDS011;12202;52.136;5.592;2022-10-16T01:22:29;10.23;;;4.65;;
23988;SDS011;12202;52.136;5.592;2022-10-16T01:24:58;11.35;;;4.93;;
23988;SDS011;12202;52.136;5.592;2022-10-16T01:27:28;8.23;;;4.40;;
23988;SDS011;12202;52.136;5.592;2022-10-16T01:29:59;10.00;;;4.85;;
23988;SDS011;12202;52.136;5.592;2022-10-16T01:32:31;10.38;;;4.40;;
23988;SDS011;12202;52.136;5.592;2022-10-16T01:35:02;8.73;;;4.70;;
23988;SDS011;12202;52.136;5.592;2022-10-16T01:37:35;9.73;;;5.28;;
23988;SDS011;12202;52.136;5.592;2022-10-16T01:40:03;11.02;;;6.03;;
23988;SDS011;12202;52.136;5.592;2022-10-16T01:42:34;11.27;;;5.28;;
23988;SDS011;12202;52.136;5.592;2022-10-16T01:45:00;11.57;;;5.43;;
23988;SDS011;12202;52.136;5.592;2022-10-16T01:47:27;11.65;;;5.13;;
23988;SDS011;12202;52.136;5.592;2022-10-16T01:49:55;7.97;;;5.20;;
23988;SDS011;12202;52.136;5.592;2022-10-16T01:52:23;8.15;;;5.18;;
23988;SDS011;12202;52.136;5.592;2022-10-16T01:54:50;11.02;;;5.22;;
23988;SDS011;12202;52.136;5.592;2022-10-16T01:57:18;10.90;;;5.35;;
23988;SDS011;12202;52.136;5.592;2022-10-16T01:59:46;16.20;;;6.03;;
23988;SDS011;12202;52.136;5.592;2022-10-16T02:02:13;9.57;;;5.20;;
23988;SDS011;12202;52.136;5.592;2022-10-16T02:04:44;11.52;;;5.18;;
23988;SDS011;12202;52.136;5.592;2022-10-16T02:07:11;9.88;;;5.72;;
23988;SDS011;12202;52.136;5.592;2022-10-16T02:09:38;7.63;;;4.93;;
23988;SDS011;12202;52.136;5.592;2022-10-16T02:12:15;9.77;;;4.57;;
23988;SDS011;12202;52.136;5.592;2022-10-16T02:14:41;14.32;;;4.70;;
23988;SDS011;12202;52.136;5.592;2022-10-16T02:17:15;9.50;;;5.32;;
23988;SDS011;12202;52.136;5.592;2022-10-16T02:19:41;10.50;;;5.13;;
23988;SDS011;12202;52.136;5.592;2022-10-16T02:22:08;13.63;;;5.63;;
23988;SDS011;12202;52.136;5.592;2022-10-16T02:24:39;11.25;;;5.00;;
23988;SDS011;12202;52.136;5.592;2022-10-16T02:27:11;11.48;;;5.50;;
23988;SDS011;12202;52.136;5.592;2022-10-16T02:29:39;10.63;;;5.25;;
23988;SDS011;12202;52.136;5.592;2022-10-16T02:32:09;13.45;;;4.93;;
23988;SDS011;12202;52.136;5.592;2022-10-16T02:34:35;8.57;;;5.15;;
23988;SDS011;12202;52.136;5.592;2022-10-16T02:37:01;9.43;;;5.45;;
23988;SDS011;12202;52.136;5.592;2022-10-16T02:39:30;7.07;;;4.85;;
23988;SDS011;12202;52.136;5.592;2022-10-16T02:41:56;12.32;;;5.32;;
23988;SDS011;12202;52.136;5.592;2022-10-16T02:44:22;11.27;;;4.85;;
23988;SDS011;12202;52.136;5.592;2022-10-16T02:46:48;10.15;;;5.95;;
23988;SDS011;12202;52.136;5.592;2022-10-16T02:49:14;8.68;;;5.03;;
23988;SDS011;12202;52.136;5.592;2022-10-16T02:51:40;8.32;;;5.10;;
23988;SDS011;12202;52.136;5.592;2022-10-16T02:54:06;7.50;;;4.95;;
23988;SDS011;12202;52.136;5.592;2022-10-16T02:56:32;6.88;;;4.70;;
23988;SDS011;12202;52.136;5.592;2022-10-16T02:58:58;9.73;;;4.78;;
23988;SDS011;12202;52.136;5.592;2022-10-16T03:01:24;5.85;;;4.85;;
23988;SDS011;12202;52.136;5.592;2022-10-16T03:03:50;13.07;;;5.00;;
23988;SDS011;12202;52.136;5.592;2022-10-16T03:06:16;12.25;;;5.78;;
23988;SDS011;12202;52.136;5.592;2022-10-16T03:08:42;13.15;;;5.70;;
23988;SDS011;12202;52.136;5.592;2022-10-16T03:11:08;7.70;;;4.63;;
23988;SDS011;12202;52.136;5.592;2022-10-16T03:13:34;9.32;;;5.53;;
23988;SDS011;12202;52.136;5.592;2022-10-16T03:16:00;12.00;;;5.38;;
23988;SDS011;12202;52.136;5.592;2022-10-16T03:18:26;8.60;;;5.22;;
23988;SDS011;12202;52.136;5.592;2022-10-16T03:20:52;11.52;;;5.43;;
23988;SDS011;12202;52.136;5.592;2022-10-16T03:23:18;12.15;;;5.40;;
23988;SDS011;12202;52.136;5.592;2022-10-16T03:25:44;9.65;;;5.28;;
23988;SDS011;12202;52.136;5.592;2022-10-16T03:28:10;10.15;;;5.00;;
23988;SDS011;12202;52.136;5.592;2022-10-16T03:30:36;13.25;;;4.97;;
23988;SDS011;12202;52.136;5.592;2022-10-16T03:33:04;9.95;;;4.97;;
23988;SDS011;12202;52.136;5.592;2022-10-16T03:35:30;11.52;;;5.28;;
23988;SDS011;12202;52.136;5.592;2022-10-16T03:37:56;7.70;;;4.75;;
23988;SDS011;12202;52.136;5.592;2022-10-16T03:40:22;10.35;;;5.05;;
23988;SDS011;12202;52.136;5.592;2022-10-16T03:42:48;10.02;;;4.63;;
23988;SDS011;12202;52.136;5.592;2022-10-16T03:45:14;9.38;;;5.35;;
23988;SDS011;12202;52.136;5.592;2022-10-16T03:47:40;10.00;;;4.80;;
23988;SDS011;12202;52.136;5.592;2022-10-16T03:50:06;10.68;;;4.90;;
23988;SDS011;12202;52.136;5.592;2022-10-16T03:52:32;6.65;;;4.28;;
23988;SDS011;12202;52.136;5.592;2022-10-16T03:54:58;6.90;;;4.97;;
23988;SDS011;12202;52.136;5.592;2022-10-16T03:57:24;9.45;;;4.88;;
23988;SDS011;12202;52.136;5.592;2022-10-16T03:59:50;11.85;;;5.43;;
23988;SDS011;12202;52.136;5.592;2022-10-16T04:02:16;9.23;;;4.97;;
23988;SDS011;12202;52.136;5.592;2022-10-16T04:04:42;8.38;;;4.80;;
23988;SDS011;12202;52.136;5.592;2022-10-16T04:07:08;9.00;;;4.82;;
23988;SDS011;12202;52.136;5.592;2022-10-16T04:09:34;10.13;;;5.13;;
23988;SDS011;12202;52.136;5.592;2022-10-16T04:12:00;5.63;;;3.85;;
23988;SDS011;12202;52.136;5.592;2022-10-16T04:14:26;7.13;;;4.50;;
23988;SDS011;12202;52.136;5.592;2022-10-16T04:16:52;9.80;;;4.47;;
23988;SDS011;12202;52.136;5.592;2022-10-16T04:19:18;11.15;;;5.05;;
23988;SDS011;12202;52.136;5.592;2022-10-16T04:21:44;13.55;;;5.50;;
23988;SDS011;12202;52.136;5.592;2022-10-16T04:24:10;9.07;;;4.53;;
23988;SDS011;12202;52.136;5.592;2022-10-16T04:26:37;6.72;;;4.38;;
23988;SDS011;12202;52.136;5.592;2022-10-16T04:29:03;8.57;;;5.30;;
23988;SDS011;12202;52.136;5.592;2022-10-16T04:31:29;8.80;;;4.25;;
23988;SDS011;12202;52.136;5.592;2022-10-16T04:33:55;9.02;;;4.25;;
23988;SDS011;12202;52.136;5.592;2022-10-16T04:36:21;16.05;;;4.55;;
23988;SDS011;12202;52.136;5.592;2022-10-16T04:38:47;11.90;;;4.47;;
23988;SDS011;12202;52.136;5.592;2022-10-16T04:41:13;9.35;;;4.07;;
23988;SDS011;12202;52.136;5.592;2022-10-16T04:43:39;9.73;;;4.80;;
23988;SDS011;12202;52.136;5.592;2022-10-16T04:46:05;7.97;;;4.78;;
23988;SDS011;12202;52.136;5.592;2022-10-16T04:48:31;5.85;;;3.63;;
23988;SDS011;12202;52.136;5.592;2022-10-16T04:50:57;9.60;;;4.15;;
23988;SDS011;12202;52.136;5.592;2022-10-16T04:53:23;8.57;;;4.57;;
23988;SDS011;12202;52.136;5.592;2022-10-16T04:55:49;5.65;;;4.10;;
23988;SDS011;12202;52.136;5.592;2022-10-16T04:58:16;6.80;;;4.28;;
23988;SDS011;12202;52.136;5.592;2022-10-16T05:00:42;10.00;;;4.78;;
23988;SDS011;12202;52.136;5.592;2022-10-16T05:03:08;8.75;;;4.85;;
23988;SDS011;12202;52.136;5.592;2022-10-16T05:05:35;12.00;;;4.95;;
23988;SDS011;12202;52.136;5.592;2022-10-16T05:08:01;12.35;;;5.38;;
23988;SDS011;12202;52.136;5.592;2022-10-16T05:10:27;12.45;;;7.82;;
23988;SDS011;12202;52.136;5.592;2022-10-16T05:12:54;9.23;;;4.88;;
23988;SDS011;12202;52.136;5.592;2022-10-16T05:15:20;9.48;;;5.63;;
23988;SDS011;12202;52.136;5.592;2022-10-16T05:17:46;9.45;;;5.28;;
23988;SDS011;12202;52.136;5.592;2022-10-16T05:20:12;8.27;;;5.32;;
23988;SDS011;12202;52.136;5.592;2022-10-16T05:22:38;6.72;;;4.43;;
23988;SDS011;12202;52.136;5.592;2022-10-16T05:25:04;8.43;;;4.75;;
23988;SDS011;12202;52.136;5.592;2022-10-16T05:27:30;14.32;;;5.55;;
23988;SDS011;12202;52.136;5.592;2022-10-16T05:29:56;9.65;;;5.40;;
23988;SDS011;12202;52.136;5.592;2022-10-16T05:32:22;10.02;;;5.88;;
23988;SDS011;12202;52.136;5.592;2022-10-16T05:34:48;10.70;;;6.78;;
23988;SDS011;12202;52.136;5.592;2022-10-16T05:37:16;15.25;;;6.65;;
23988;SDS011;12202;52.136;5.592;2022-10-16T05:39:42;11.10;;;6.57;;
23988;SDS011;12202;52.136;5.592;2022-10-16T05:42:08;13.00;;;6.53;;
23988;SDS011;12202;52.136;5.592;2022-10-16T05:44:34;16.23;;;7.47;;
23988;SDS011;12202;52.136;5.592;2022-10-16T05:47:00;16.02;;;9.63;;
23988;SDS011;12202;52.136;5.592;2022-10-16T05:49:26;18.98;;;9.20;;
23988;SDS011;12202;52.136;5.592;2022-10-16T05:51:51;14.00;;;7.13;;
23988;SDS011;12202;52.136;5.592;2022-10-16T05:54:18;14.30;;;8.30;;
23988;SDS011;12202;52.136;5.592;2022-10-16T05:56:44;12.73;;;7.47;;
23988;SDS011;12202;52.136;5.592;2022-10-16T05:59:10;18.75;;;8.80;;
23988;SDS011;12202;52.136;5.592;2022-10-16T06:01:36;13.82;;;8.55;;
23988;SDS011;12202;52.136;5.592;2022-10-16T06:04:02;17.08;;;8.73;;
23988;SDS011;12202;52.136;5.592;2022-10-16T06:06:28;17.42;;;8.25;;
23988;SDS011;12202;52.136;5.592;2022-10-16T06:08:55;10.93;;;8.00;;
23988;SDS011;12202;52.136;5.592;2022-10-16T06:11:23;15.75;;;8.73;;
23988;SDS011;12202;52.136;5.592;2022-10-16T06:13:53;17.92;;;8.55;;
23988;SDS011;12202;52.136;5.592;2022-10-16T06:16:21;18.85;;;8.07;;
23988;SDS011;12202;52.136;5.592;2022-10-16T06:18:47;23.92;;;8.15;;
23988;SDS011;12202;52.136;5.592;2022-10-16T06:21:17;14.85;;;6.93;;
23988;SDS011;12202;52.136;5.592;2022-10-16T06:23:43;11.18;;;7.60;;
23988;SDS011;12202;52.136;5.592;2022-10-16T06:26:12;12.75;;;6.95;;
23988;SDS011;12202;52.136;5.592;2022-10-16T06:28:38;11.25;;;6.82;;
23988;SDS011;12202;52.136;5.592;2022-10-16T06:31:05;8.77;;;6.72;;
23988;SDS011;12202;52.136;5.592;2022-10-16T06:33:31;11.80;;;7.50;;
23988;SDS011;12202;52.136;5.592;2022-10-16T06:36:15;13.32;;;6.93;;
23988;SDS011;12202;52.136;5.592;2022-10-16T06:38:42;15.65;;;6.80;;
23988;SDS011;12202;52.136;5.592;2022-10-16T06:41:09;8.68;;;5.82;;
23988;SDS011;12202;52.136;5.592;2022-10-16T06:43:36;14.25;;;7.18;;
23988;SDS011;12202;52.136;5.592;2022-10-16T06:46:02;18.15;;;9.13;;
23988;SDS011;12202;52.136;5.592;2022-10-16T06:48:28;9.65;;;6.78;;
23988;SDS011;12202;52.136;5.592;2022-10-16T06:51:01;14.25;;;6.55;;
23988;SDS011;12202;52.136;5.592;2022-10-16T06:53:29;10.80;;;5.60;;
23988;SDS011;12202;52.136;5.592;2022-10-16T06:55:55;12.57;;;6.22;;
23988;SDS011;12202;52.136;5.592;2022-10-16T06:58:21;8.90;;;5.60;;
23988;SDS011;12202;52.136;5.592;2022-10-16T07:00:48;12.30;;;6.38;;
23988;SDS011;12202;52.136;5.592;2022-10-16T07:03:14;9.25;;;5.57;;
23988;SDS011;12202;52.136;5.592;2022-10-16T07:05:41;11.40;;;5.43;;
23988;SDS011;12202;52.136;5.592;2022-10-16T07:08:07;13.70;;;5.63;;
23988;SDS011;12202;52.136;5.592;2022-10-16T07:10:34;11.35;;;5.80;;
23988;SDS011;12202;52.136;5.592;2022-10-16T07:13:00;12.48;;;5.10;;
23988;SDS011;12202;52.136;5.592;2022-10-16T07:15:26;7.88;;;5.38;;
23988;SDS011;12202;52.136;5.592;2022-10-16T07:17:52;9.00;;;4.72;;
23988;SDS011;12202;52.136;5.592;2022-10-16T07:20:19;10.43;;;4.93;;
23988;SDS011;12202;52.136;5.592;2022-10-16T07:22:45;10.48;;;5.10;;
23988;SDS011;12202;52.136;5.592;2022-10-16T07:25:11;10.75;;;5.00;;
23988;SDS011;12202;52.136;5.592;2022-10-16T07:27:37;11.38;;;6.85;;
23988;SDS011;12202;52.136;5.592;2022-10-16T07:30:03;10.35;;;4.40;;
23988;SDS011;12202;52.136;5.592;2022-10-16T07:32:29;10.20;;;5.35;;
23988;SDS011;12202;52.136;5.592;2022-10-16T07:34:55;14.82;;;4.88;;
23988;SDS011;12202;52.136;5.592;2022-10-16T07:37:21;10.90;;;4.53;;
23988;SDS011;12202;52.136;5.592;2022-10-16T07:39:47;11.45;;;4.32;;
23988;SDS011;12202;52.136;5.592;2022-10-16T07:42:14;12.77;;;4.07;;
23988;SDS011;12202;52.136;5.592;2022-10-16T07:44:40;12.43;;;4.38;;
23988;SDS011;12202;52.136;5.592;2022-10-16T07:47:06;7.22;;;3.85;;
23988;SDS011;12202;52.136;5.592;2022-10-16T07:49:32;6.38;;;4.30;;
23988;SDS011;12202;52.136;5.592;2022-10-16T07:51:58;12.40;;;4.90;;
23988;SDS011;12202;52.136;5.592;2022-10-16T07:54:24;8.73;;;4.30;;
23988;SDS011;12202;52.136;5.592;2022-10-16T07:56:50;9.73;;;4.38;;
23988;SDS011;12202;52.136;5.592;2022-10-16T07:59:16;13.07;;;5.30;;
23988;SDS011;12202;52.136;5.592;2022-10-16T08:01:42;9.25;;;4.97;;
23988;SDS011;12202;52.136;5.592;2022-10-16T08:04:08;8.65;;;5.60;;
23988;SDS011;12202;52.136;5.592;2022-10-16T08:06:35;12.90;;;6.00;;
23988;SDS011;12202;52.136;5.592;2022-10-16T08:09:01;6.32;;;4.93;;
23988;SDS011;12202;52.136;5.592;2022-10-16T08:11:27;8.48;;;4.82;;
23988;SDS011;12202;52.136;5.592;2022-10-16T08:13:53;8.30;;;4.68;;
23988;SDS011;12202;52.136;5.592;2022-10-16T08:16:19;7.95;;;4.93;;
23988;SDS011;12202;52.136;5.592;2022-10-16T08:18:45;10.10;;;5.15;;
23988;SDS011;12202;52.136;5.592;2022-10-16T08:21:12;12.15;;;4.95;;
23988;SDS011;12202;52.136;5.592;2022-10-16T08:23:38;12.07;;;5.03;;
23988;SDS011;12202;52.136;5.592;2022-10-16T08:26:05;8.77;;;4.93;;
23988;SDS011;12202;52.136;5.592;2022-10-16T08:28:32;6.57;;;4.35;;
23988;SDS011;12202;52.136;5.592;2022-10-16T08:31:04;16.10;;;5.78;;
23988;SDS011;12202;52.136;5.592;2022-10-16T08:33:30;10.98;;;4.30;;
23988;SDS011;12202;52.136;5.592;2022-10-16T08:35:56;8.73;;;4.53;;
23988;SDS011;12202;52.136;5.592;2022-10-16T08:38:22;11.27;;;4.20;;
23988;SDS011;12202;52.136;5.592;2022-10-16T08:40:48;12.98;;;4.45;;
23988;SDS011;12202;52.136;5.592;2022-10-16T08:43:30;7.72;;;4.38;;
23988;SDS011;12202;52.136;5.592;2022-10-16T08:46:14;12.73;;;3.72;;
23988;SDS011;12202;52.136;5.592;2022-10-16T08:48:46;14.13;;;4.78;;
23988;SDS011;12202;52.136;5.592;2022-10-16T08:51:23;8.45;;;3.70;;
23988;SDS011;12202;52.136;5.592;2022-10-16T08:53:59;10.15;;;4.47;;
23988;SDS011;12202;52.136;5.592;2022-10-16T08:56:27;9.32;;;4.63;;
23988;SDS011;12202;52.136;5.592;2022-10-16T08:58:53;13.13;;;4.30;;
23988;SDS011;12202;52.136;5.592;2022-10-16T09:01:21;13.90;;;4.50;;
23988;SDS011;12202;52.136;5.592;2022-10-16T09:11:51;11.90;;;3.80;;
23988;SDS011;12202;52.136;5.592;2022-10-16T09:14:23;16.48;;;3.85;;
23988;SDS011;12202;52.136;5.592;2022-10-16T09:17:03;13.57;;;4.78;;
23988;SDS011;12202;52.136;5.592;2022-10-16T09:21:59;12.55;;;3.25;;
23988;SDS011;12202;52.136;5.592;2022-10-16T09:24:27;14.15;;;3.30;;
23988;SDS011;12202;52.136;5.592;2022-10-16T09:26:53;20.20;;;3.38;;
23988;SDS011;12202;52.136;5.592;2022-10-16T09:29:20;17.48;;;3.38;;
23988;SDS011;12202;52.136;5.592;2022-10-16T09:31:48;10.23;;;3.63;;
23988;SDS011;12202;52.136;5.592;2022-10-16T09:36:48;21.17;;;3.55;;
23988;SDS011;12202;52.136;5.592;2022-10-16T09:39:14;14.98;;;3.20;;
23988;SDS011;12202;52.136;5.592;2022-10-16T09:41:43;16.27;;;3.60;;
23988;SDS011;12202;52.136;5.592;2022-10-16T09:46:41;9.63;;;2.90;;
23988;SDS011;12202;52.136;5.592;2022-10-16T09:51:45;14.35;;;3.63;;
23988;SDS011;12202;52.136;5.592;2022-10-16T09:54:13;21.05;;;4.55;;
23988;SDS011;12202;52.136;5.592;2022-10-16T09:56:40;17.73;;;3.35;;
23988;SDS011;12202;52.136;5.592;2022-10-16T09:59:17;14.35;;;3.38;;
23988;SDS011;12202;52.136;5.592;2022-10-16T10:02:04;22.08;;;3.17;;
23988;SDS011;12202;52.136;5.592;2022-10-16T10:04:37;12.57;;;2.80;;
23988;SDS011;12202;52.136;5.592;2022-10-16T10:07:04;13.77;;;3.80;;
23988;SDS011;12202;52.136;5.592;2022-10-16T10:09:36;14.80;;;3.33;;
23988;SDS011;12202;52.136;5.592;2022-10-16T10:12:04;16.17;;;3.08;;
23988;SDS011;12202;52.136;5.592;2022-10-16T10:17:22;12.65;;;2.97;;
23988;SDS011;12202;52.136;5.592;2022-10-16T10:19:57;17.55;;;3.13;;
23988;SDS011;12202;52.136;5.592;2022-10-16T10:46:14;19.27;;;2.85;;
23988;SDS011;12202;52.136;5.592;2022-10-16T10:51:20;8.43;;;2.30;;
23988;SDS011;12202;52.136;5.592;2022-10-16T10:53:55;17.65;;;3.30;;
23988;SDS011;12202;52.136;5.592;2022-10-16T11:02:00;21.55;;;3.05;;
23988;SDS011;12202;52.136;5.592;2022-10-16T11:07:19;15.70;;;2.55;;
23988;SDS011;12202;52.136;5.592;2022-10-16T11:09:47;19.92;;;3.05;;
23988;SDS011;12202;52.136;5.592;2022-10-16T11:12:27;16.10;;;2.78;;
23988;SDS011;12202;52.136;5.592;2022-10-16T11:14:57;29.40;;;4.85;;
23988;SDS011;12202;52.136;5.592;2022-10-16T11:17:38;20.35;;;3.17;;
23988;SDS011;12202;52.136;5.592;2022-10-16T11:22:34;16.25;;;3.28;;
23988;SDS011;12202;52.136;5.592;2022-10-16T11:25:11;11.13;;;2.45;;
23988;SDS011;12202;52.136;5.592;2022-10-16T11:30:14;12.52;;;3.38;;
23988;SDS011;12202;52.136;5.592;2022-10-16T11:32:57;14.43;;;2.70;;
23988;SDS011;12202;52.136;5.592;2022-10-16T11:35:40;16.40;;;2.60;;
23988;SDS011;12202;52.136;5.592;2022-10-16T11:38:15;16.00;;;2.88;;
23988;SDS011;12202;52.136;5.592;2022-10-16T11:40:45;21.52;;;3.72;;
23988;SDS011;12202;52.136;5.592;2022-10-16T11:43:22;13.10;;;2.88;;
23988;SDS011;12202;52.136;5.592;2022-10-16T11:45:54;10.80;;;2.40;;
23988;SDS011;12202;52.136;5.592;2022-10-16T11:48:43;19.02;;;2.85;;
23988;SDS011;12202;52.136;5.592;2022-10-16T11:53:58;15.18;;;3.03;;
23988;SDS011;12202;52.136;5.592;2022-10-16T11:56:25;10.48;;;2.50;;
23988;SDS011;12202;52.136;5.592;2022-10-16T11:58:58;7.65;;;2.25;;
23988;SDS011;12202;52.136;5.592;2022-10-16T12:01:28;8.60;;;2.35;;
23988;SDS011;12202;52.136;5.592;2022-10-16T12:06:57;13.70;;;2.28;;
23988;SDS011;12202;52.136;5.592;2022-10-16T12:09:24;20.35;;;5.13;;
23988;SDS011;12202;52.136;5.592;2022-10-16T12:11:51;19.40;;;6.70;;
23988;SDS011;12202;52.136;5.592;2022-10-16T12:14:22;13.60;;;2.67;;
23988;SDS011;12202;52.136;5.592;2022-10-16T12:19:56;13.38;;;2.22;;
23988;SDS011;12202;52.136;5.592;2022-10-16T12:22:24;8.95;;;2.53;;
23988;SDS011;12202;52.136;5.592;2022-10-16T12:24:52;8.55;;;2.30;;
23988;SDS011;12202;52.136;5.592;2022-10-16T12:27:23;13.30;;;2.60;;
23988;SDS011;12202;52.136;5.592;2022-10-16T12:29:53;13.38;;;2.80;;
23988;SDS011;12202;52.136;5.592;2022-10-16T12:32:33;8.05;;;2.22;;
23988;SDS011;12202;52.136;5.592;2022-10-16T12:35:00;14.13;;;3.33;;
23988;SDS011;12202;52.136;5.592;2022-10-16T12:37:28;13.07;;;2.63;;
23988;SDS011;12202;52.136;5.592;2022-10-16T12:39:55;16.77;;;2.70;;
23988;SDS011;12202;52.136;5.592;2022-10-16T12:44:58;15.20;;;2.42;;
23988;SDS011;12202;52.136;5.592;2022-10-16T12:49:56;12.57;;;1.90;;
23988;SDS011;12202;52.136;5.592;2022-10-16T12:52:24;11.32;;;2.28;;
23988;SDS011;12202;52.136;5.592;2022-10-16T12:54:50;10.90;;;1.95;;
23988;SDS011;12202;52.136;5.592;2022-10-16T12:59:52;17.23;;;2.38;;
23988;SDS011;12202;52.136;5.592;2022-10-16T13:07:51;12.02;;;2.08;;
23988;SDS011;12202;52.136;5.592;2022-10-16T13:10:40;13.07;;;2.70;;
23988;SDS011;12202;52.136;5.592;2022-10-16T13:18:29;18.50;;;3.10;;
23988;SDS011;12202;52.136;5.592;2022-10-16T13:21:06;17.90;;;2.50;;
23988;SDS011;12202;52.136;5.592;2022-10-16T13:23:40;17.90;;;2.70;;
23988;SDS011;12202;52.136;5.592;2022-10-16T13:26:14;13.93;;;3.33;;
23988;SDS011;12202;52.136;5.592;2022-10-16T13:28:42;14.13;;;2.95;;
23988;SDS011;12202;52.136;5.592;2022-10-16T13:31:13;15.57;;;2.60;;
23988;SDS011;12202;52.136;5.592;2022-10-16T13:33:41;29.52;;;4.70;;
23988;SDS011;12202;52.136;5.592;2022-10-16T13:36:22;12.65;;;3.03;;
23988;SDS011;12202;52.136;5.592;2022-10-16T13:38:48;18.85;;;3.33;;
23988;SDS011;12202;52.136;5.592;2022-10-16T13:41:17;14.70;;;2.38;;
23988;SDS011;12202;52.136;5.592;2022-10-16T13:43:51;16.55;;;2.45;;
23988;SDS011;12202;52.136;5.592;2022-10-16T13:46:19;11.25;;;2.42;;
23988;SDS011;12202;52.136;5.592;2022-10-16T13:51:24;14.13;;;2.88;;
23988;SDS011;12202;52.136;5.592;2022-10-16T13:53:50;17.17;;;2.92;;
23988;SDS011;12202;52.136;5.592;2022-10-16T13:56:17;28.73;;;7.28;;
23988;SDS011;12202;52.136;5.592;2022-10-16T13:58:44;17.13;;;3.72;;
23988;SDS011;12202;52.136;5.592;2022-10-16T14:01:20;16.20;;;2.72;;
23988;SDS011;12202;52.136;5.592;2022-10-16T14:03:48;16.80;;;2.90;;
23988;SDS011;12202;52.136;5.592;2022-10-16T14:06:16;23.13;;;4.03;;
23988;SDS011;12202;52.136;5.592;2022-10-16T14:08:43;11.45;;;2.45;;
23988;SDS011;12202;52.136;5.592;2022-10-16T14:11:11;12.70;;;2.70;;
23988;SDS011;12202;52.136;5.592;2022-10-16T14:13:38;18.30;;;2.67;;
23988;SDS011;12202;52.136;5.592;2022-10-16T14:16:06;16.88;;;3.15;;
23988;SDS011;12202;52.136;5.592;2022-10-16T14:18:33;17.70;;;3.08;;
23988;SDS011;12202;52.136;5.592;2022-10-16T14:21:03;20.27;;;3.70;;
23988;SDS011;12202;52.136;5.592;2022-10-16T14:23:30;14.52;;;2.95;;
23988;SDS011;12202;52.136;5.592;2022-10-16T14:26:19;12.90;;;2.75;;
23988;SDS011;12202;52.136;5.592;2022-10-16T14:28:44;15.57;;;3.00;;
23988;SDS011;12202;52.136;5.592;2022-10-16T14:31:53;16.92;;;3.00;;
23988;SDS011;12202;52.136;5.592;2022-10-16T14:34:02;17.58;;;3.45;;
23988;SDS011;12202;52.136;5.592;2022-10-16T14:36:29;16.55;;;5.97;;
23988;SDS011;12202;52.136;5.592;2022-10-16T14:39:06;26.25;;;7.75;;
23988;SDS011;12202;52.136;5.592;2022-10-16T14:41:44;26.08;;;8.73;;
23988;SDS011;12202;52.136;5.592;2022-10-16T14:44:11;21.13;;;5.95;;
23988;SDS011;12202;52.136;5.592;2022-10-16T14:46:38;25.23;;;4.63;;
23988;SDS011;12202;52.136;5.592;2022-10-16T14:51:34;21.77;;;3.35;;
23988;SDS011;12202;52.136;5.592;2022-10-16T14:54:00;19.55;;;3.83;;
23988;SDS011;12202;52.136;5.592;2022-10-16T14:56:30;13.60;;;3.13;;
23988;SDS011;12202;52.136;5.592;2022-10-16T14:58:56;19.13;;;3.05;;
23988;SDS011;12202;52.136;5.592;2022-10-16T15:01:22;16.67;;;2.83;;
23988;SDS011;12202;52.136;5.592;2022-10-16T15:03:48;20.45;;;3.75;;
23988;SDS011;12202;52.136;5.592;2022-10-16T15:06:17;19.13;;;4.43;;
23988;SDS011;12202;52.136;5.592;2022-10-16T15:08:43;12.82;;;3.97;;
23988;SDS011;12202;52.136;5.592;2022-10-16T15:11:12;13.32;;;3.05;;
23988;SDS011;12202;52.136;5.592;2022-10-16T15:13:39;18.55;;;3.67;;
23988;SDS011;12202;52.136;5.592;2022-10-16T15:16:07;16.00;;;2.90;;
23988;SDS011;12202;52.136;5.592;2022-10-16T15:18:33;14.23;;;2.85;;
23988;SDS011;12202;52.136;5.592;2022-10-16T15:20:59;13.73;;;2.83;;
23988;SDS011;12202;52.136;5.592;2022-10-16T15:23:25;18.95;;;3.05;;
23988;SDS011;12202;52.136;5.592;2022-10-16T15:25:51;10.70;;;3.05;;
23988;SDS011;12202;52.136;5.592;2022-10-16T15:28:18;10.00;;;3.00;;
23988;SDS011;12202;52.136;5.592;2022-10-16T15:30:44;12.60;;;3.13;;
23988;SDS011;12202;52.136;5.592;2022-10-16T15:33:12;14.98;;;3.15;;
23988;SDS011;12202;52.136;5.592;2022-10-16T15:35:38;12.43;;;2.40;;
23988;SDS011;12202;52.136;5.592;2022-10-16T15:38:04;21.55;;;3.65;;
23988;SDS011;12202;52.136;5.592;2022-10-16T15:40:30;13.13;;;3.33;;
23988;SDS011;12202;52.136;5.592;2022-10-16T15:42:57;17.17;;;3.95;;
23988;SDS011;12202;52.136;5.592;2022-10-16T15:45:22;16.80;;;3.15;;
23988;SDS011;12202;52.136;5.592;2022-10-16T15:47:48;14.55;;;2.58;;
23988;SDS011;12202;52.136;5.592;2022-10-16T15:50:15;18.88;;;6.05;;
23988;SDS011;12202;52.136;5.592;2022-10-16T15:52:41;16.13;;;8.27;;
23988;SDS011;12202;52.136;5.592;2022-10-16T15:55:10;22.23;;;8.68;;
23988;SDS011;12202;52.136;5.592;2022-10-16T15:57:37;25.50;;;9.60;;
23988;SDS011;12202;52.136;5.592;2022-10-16T16:00:06;28.58;;;8.80;;
23988;SDS011;12202;52.136;5.592;2022-10-16T16:02:32;26.02;;;8.23;;
23988;SDS011;12202;52.136;5.592;2022-10-16T16:04:58;26.00;;;11.10;;
23988;SDS011;12202;52.136;5.592;2022-10-16T16:07:24;23.05;;;10.25;;
23988;SDS011;12202;52.136;5.592;2022-10-16T16:09:52;28.52;;;9.98;;
23988;SDS011;12202;52.136;5.592;2022-10-16T16:12:18;20.13;;;5.55;;
23988;SDS011;12202;52.136;5.592;2022-10-16T16:14:44;16.00;;;4.30;;
23988;SDS011;12202;52.136;5.592;2022-10-16T16:17:13;18.45;;;4.28;;
23988;SDS011;12202;52.136;5.592;2022-10-16T16:19:39;22.02;;;6.43;;
23988;SDS011;12202;52.136;5.592;2022-10-16T16:22:05;23.23;;;6.30;;
23988;SDS011;12202;52.136;5.592;2022-10-16T16:24:31;19.75;;;6.80;;